createdAt,value
2019-01-27T00:02:34.112Z,5.78
2019-01-27T00:05:20.367Z,4.40
2019-01-27T00:07:46.880Z,5.22
2019-01-27T00:10:13.373Z,5.05
2019-01-27T00:12:59.631Z,4.35
2019-01-27T00:15:45.894Z,4.55
2019-01-27T00:18:25.392Z,4.45
2019-01-27T00:21:11.682Z,5.15
2019-01-27T00:23:52.172Z,4.85
2019-01-27T00:26:38.335Z,5.33
2019-01-27T00:29:04.980Z,5.20
2019-01-27T00:31:51.224Z,4.78
2019-01-27T00:34:37.588Z,4.95
2019-01-27T00:37:17.882Z,4.37
2019-01-27T00:42:56.774Z,4.25
2019-01-27T00:45:43.162Z,5.62
2019-01-27T00:48:22.826Z,4.45
2019-01-27T00:50:49.327Z,4.87
2019-01-27T00:53:35.614Z,4.30
2019-01-27T00:56:15.892Z,4.85
2019-01-27T00:58:42.517Z,4.30
2019-01-27T01:01:28.859Z,4.28
2019-01-27T01:04:09.386Z,4.33
2019-01-27T01:06:56.892Z,4.00
2019-01-27T01:09:36.680Z,5.90
2019-01-27T01:12:03.282Z,5.75
2019-01-27T01:14:29.682Z,4.50
2019-01-27T01:17:15.970Z,4.78
2019-01-27T01:19:55.907Z,4.42
2019-01-27T01:22:42.295Z,4.83
2019-01-27T01:25:22.361Z,4.50
2019-01-27T01:28:08.598Z,4.58
2019-01-27T01:31:09.650Z,4.55
2019-01-27T01:33:49.127Z,4.55
2019-01-27T01:36:35.357Z,4.08
2019-01-27T01:39:16.270Z,4.33
2019-01-27T01:42:02.542Z,3.90
2019-01-27T01:44:29.038Z,4.00
2019-01-27T01:50:14.205Z,4.30
2019-01-27T01:52:54.711Z,3.12
2019-01-27T01:55:40.977Z,3.65
2019-01-27T02:01:28.496Z,4.08
2019-01-27T02:04:08.459Z,4.92
2019-01-27T02:06:54.866Z,3.98
2019-01-27T02:09:41.018Z,3.75
2019-01-27T02:12:20.793Z,4.47
2019-01-27T02:15:20.384Z,3.37
2019-01-27T02:18:28.599Z,2.77
2019-01-27T02:21:08.234Z,4.67
2019-01-27T02:23:54.647Z,4.17
2019-01-27T02:26:21.351Z,3.98
2019-01-27T02:29:07.871Z,3.75
2019-01-27T02:31:54.255Z,4.17
2019-01-27T02:34:34.396Z,4.10
2019-01-27T02:37:00.858Z,4.15
2019-01-27T02:39:47.212Z,3.95
2019-01-27T02:42:27.590Z,3.02
2019-01-27T02:45:14.275Z,4.28
2019-01-27T02:48:00.650Z,3.00
2019-01-27T02:50:40.564Z,3.70
2019-01-27T02:53:07.047Z,3.62
2019-01-27T02:55:53.302Z,3.33
2019-01-27T02:58:33.344Z,2.70
2019-01-27T03:01:19.862Z,2.87
2019-01-27T03:03:59.712Z,4.37
2019-01-27T03:15:55.731Z,3.52
2019-01-27T03:18:41.980Z,3.58
2019-01-27T03:21:21.739Z,4.20
2019-01-27T03:24:07.987Z,3.37
2019-01-27T03:26:54.267Z,3.20
2019-01-27T03:29:40.514Z,4.08
2019-01-27T03:32:19.919Z,4.03
2019-01-27T03:35:07.541Z,4.22
2019-01-27T03:37:47.195Z,3.35
2019-01-27T03:40:33.466Z,3.25
2019-01-27T03:42:59.900Z,4.60
2019-01-27T03:45:26.382Z,3.15
2019-01-27T03:48:12.639Z,2.72
2019-01-27T03:53:59.052Z,2.00
2019-01-27T03:56:41.092Z,2.80
2019-01-27T04:02:27.803Z,3.33
2019-01-27T04:05:14.127Z,2.87
2019-01-27T04:07:53.928Z,2.95
2019-01-27T04:13:30.643Z,2.00
2019-01-27T04:15:57.389Z,2.80
2019-01-27T04:18:23.992Z,2.52
2019-01-27T04:20:50.459Z,3.20
2019-01-27T04:23:16.960Z,3.20
2019-01-27T04:25:43.487Z,3.12
2019-01-27T04:31:27.822Z,3.45
2019-01-27T04:33:54.325Z,2.83
2019-01-27T04:36:40.542Z,3.50
2019-01-27T04:39:20.863Z,3.02
2019-01-27T04:41:47.341Z,3.15
2019-01-27T04:44:13.864Z,3.62
2019-01-27T04:49:52.026Z,3.67
2019-01-27T04:52:18.601Z,2.80
2019-01-27T04:54:45.231Z,2.92
2019-01-27T04:57:11.790Z,3.35
2019-01-27T04:59:58.067Z,3.10
2019-01-27T05:05:25.290Z,4.05
2019-01-27T05:08:07.028Z,3.40
2019-01-27T05:10:53.267Z,3.90
2019-01-27T05:13:33.831Z,4.12
2019-01-27T05:16:00.507Z,3.50
2019-01-27T05:18:46.850Z,3.83
2019-01-27T05:21:26.850Z,3.90
2019-01-27T05:24:13.208Z,4.33
2019-01-27T05:26:53.260Z,3.85
2019-01-27T05:29:40.518Z,4.58
2019-01-27T05:32:21.239Z,4.28
2019-01-27T05:35:07.474Z,4.15
2019-01-27T05:37:47.458Z,4.20
2019-01-27T05:40:33.901Z,3.80
2019-01-27T05:43:13.443Z,4.17
2019-01-27T05:45:59.717Z,4.95
2019-01-27T05:48:26.236Z,3.35
2019-01-27T05:51:12.565Z,3.95
2019-01-27T05:53:38.948Z,3.80
2019-01-27T05:56:25.336Z,3.72
2019-01-27T05:58:51.950Z,3.77
2019-01-27T06:01:38.298Z,3.98
2019-01-27T06:04:24.684Z,4.00
2019-01-27T06:07:04.231Z,4.37
2019-01-27T06:09:50.482Z,4.10
2019-01-27T06:12:30.374Z,4.20
2019-01-27T06:15:17.089Z,3.05
2019-01-27T06:17:56.586Z,2.92
2019-01-27T06:20:42.864Z,2.72
2019-01-27T06:23:22.853Z,4.12
2019-01-27T06:26:09.101Z,5.00
2019-01-27T06:28:48.799Z,3.80
2019-01-27T06:31:35.041Z,3.77
2019-01-27T06:34:01.820Z,2.72
2019-01-27T06:36:28.414Z,4.03
2019-01-27T06:38:54.929Z,3.37
2019-01-27T06:41:41.183Z,4.05
2019-01-27T06:44:21.481Z,4.05
2019-01-27T06:46:48.025Z,3.80
2019-01-27T06:49:34.422Z,3.70
2019-01-27T06:52:14.377Z,3.92
2019-01-27T06:57:45.809Z,4.12
2019-01-27T07:00:47.286Z,4.20
2019-01-27T07:09:42.279Z,3.58
2019-01-27T07:15:37.287Z,4.42
2019-01-27T07:21:09.535Z,3.75
2019-01-27T07:24:15.645Z,4.03
2019-01-27T07:26:57.530Z,3.67
2019-01-27T07:29:57.271Z,3.30
2019-01-27T07:38:44.611Z,3.47
2019-01-27T07:41:26.588Z,3.70
2019-01-27T07:44:32.680Z,3.47
2019-01-27T07:53:51.239Z,3.60
2019-01-27T07:56:37.651Z,4.15
2019-01-27T07:59:43.826Z,3.87
2019-01-27T08:02:43.771Z,4.10
2019-01-27T08:05:30.182Z,3.95
2019-01-27T08:08:31.011Z,4.00
2019-01-27T08:14:49.797Z,3.70
2019-01-27T08:17:36.833Z,5.80
2019-01-27T08:20:38.131Z,4.47
2019-01-27T08:23:37.662Z,4.83
2019-01-27T08:32:47.096Z,5.28
2019-01-27T08:45:24.676Z,4.12
2019-01-27T08:48:04.921Z,4.00
2019-01-27T08:50:31.407Z,4.85
2019-01-27T08:53:17.635Z,4.30
2019-01-27T08:55:44.138Z,4.87
2019-01-27T08:58:30.407Z,4.87
2019-01-27T09:04:13.222Z,4.20
2019-01-27T09:12:44.147Z,4.20
2019-01-27T09:15:50.320Z,4.78
2019-01-27T09:18:50.221Z,4.33
2019-01-27T09:21:56.363Z,5.10
2019-01-27T09:24:38.195Z,5.00
2019-01-27T09:27:24.560Z,4.25
2019-01-27T09:30:10.815Z,5.12
2019-01-27T09:33:16.944Z,4.67
2019-01-27T09:35:58.607Z,4.75
2019-01-27T09:41:47.664Z,5.12
2019-01-27T09:50:23.251Z,6.45
2019-01-27T09:59:37.022Z,4.80
2019-01-27T10:08:01.218Z,4.67
2019-01-27T10:11:07.342Z,4.55
2019-01-27T10:14:06.807Z,5.20
2019-01-27T10:17:12.930Z,3.98
2019-01-27T10:20:12.933Z,4.55
2019-01-27T10:23:19.138Z,5.12
2019-01-27T10:26:19.239Z,5.40
2019-01-27T10:29:25.360Z,5.33
2019-01-27T10:32:25.622Z,3.75
2019-01-27T10:35:07.849Z,3.40
2019-01-27T10:38:09.044Z,5.67
2019-01-27T10:40:51.231Z,4.58
2019-01-27T10:43:37.652Z,4.33
2019-01-27T10:46:37.530Z,4.42
2019-01-27T10:49:43.641Z,4.55
2019-01-27T10:52:28.451Z,3.80
2019-01-27T10:55:27.712Z,4.17
2019-01-27T10:58:27.154Z,4.50
2019-01-27T11:07:15.237Z,3.27
2019-01-27T11:10:01.673Z,4.40
2019-01-27T11:12:43.680Z,4.85
2019-01-27T11:15:49.918Z,4.57
2019-01-27T11:18:32.094Z,4.30
2019-01-27T11:21:18.449Z,4.13
2019-01-27T11:30:18.747Z,4.77
2019-01-27T11:42:38.352Z,4.10
2019-01-27T11:45:44.487Z,4.30
2019-01-27T11:48:31.004Z,5.28
2019-01-27T11:54:01.658Z,4.17
2019-01-27T11:56:48.063Z,4.10
2019-01-27T11:59:28.642Z,4.87
2019-01-27T12:02:15.008Z,5.07
2019-01-27T12:04:54.847Z,4.50
2019-01-27T12:07:21.388Z,4.90
2019-01-27T12:12:58.312Z,3.47
2019-01-27T12:15:25.066Z,5.87
2019-01-27T12:18:11.401Z,5.97
2019-01-27T12:20:50.890Z,4.53
2019-01-27T12:23:17.452Z,4.23
2019-01-27T12:26:03.838Z,4.70
2019-01-27T12:28:50.212Z,4.37
2019-01-27T12:31:29.902Z,4.50
2019-01-27T12:34:16.266Z,4.37
2019-01-27T12:36:56.090Z,4.30
2019-01-27T12:39:42.356Z,4.60
2019-01-27T12:42:22.521Z,4.97
2019-01-27T12:48:23.134Z,4.30
2019-01-27T12:51:09.635Z,4.70
2019-01-27T12:53:36.155Z,4.70
2019-01-27T12:56:02.748Z,4.70
2019-01-27T12:58:49.105Z,5.17
2019-01-27T13:01:16.012Z,4.43
2019-01-27T13:04:02.446Z,5.30
2019-01-27T13:06:42.143Z,4.77
2019-01-27T13:09:29.938Z,5.63
2019-01-27T13:12:14.105Z,4.23
2019-01-27T13:15:00.357Z,5.33
2019-01-27T13:17:40.337Z,4.10
2019-01-27T13:23:22.428Z,5.53
2019-01-27T13:26:08.786Z,4.07
2019-01-27T13:28:48.576Z,2.83
2019-01-27T13:31:34.864Z,5.00
2019-01-27T13:34:01.569Z,3.97
2019-01-27T13:36:28.062Z,4.50
2019-01-27T13:39:14.359Z,4.47
2019-01-27T13:41:54.328Z,4.00
2019-01-27T13:44:40.653Z,4.83
2019-01-27T13:47:20.674Z,5.50
2019-01-27T13:50:10.101Z,4.70
2019-01-27T13:52:50.059Z,4.33
2019-01-27T13:55:36.442Z,4.87
2019-01-27T13:58:18.434Z,6.03
2019-01-27T14:01:04.558Z,3.67
2019-01-27T14:03:31.080Z,4.50
2019-01-27T14:06:17.421Z,4.83
2019-01-27T14:12:03.998Z,4.73
2019-01-27T14:14:50.231Z,4.77
2019-01-27T14:17:36.479Z,3.90
2019-01-27T14:20:17.510Z,4.23
2019-01-27T14:22:44.055Z,4.12
2019-01-27T14:25:30.359Z,3.00
2019-01-27T14:27:56.991Z,4.50
2019-01-27T14:30:43.676Z,5.22
2019-01-27T14:33:30.112Z,6.30
2019-01-27T14:36:10.058Z,4.60
2019-01-27T14:38:56.339Z,5.25
2019-01-27T14:41:36.202Z,4.27
2019-01-27T14:44:22.579Z,6.17
2019-01-27T14:47:02.314Z,5.50
2019-01-27T14:49:48.588Z,5.43
2019-01-27T14:52:28.302Z,6.07
2019-01-27T14:55:15.730Z,4.33
2019-01-27T14:58:16.399Z,4.30
2019-01-27T15:00:55.831Z,4.97
2019-01-27T15:03:42.077Z,4.43
2019-01-27T15:06:22.333Z,5.37
2019-01-27T15:09:08.566Z,4.73
2019-01-27T15:11:47.924Z,5.83
2019-01-27T15:14:27.870Z,4.87
2019-01-27T15:17:14.090Z,4.27
2019-01-27T15:19:54.202Z,4.67
2019-01-27T15:22:40.483Z,3.53
2019-01-27T15:25:20.522Z,5.20
2019-01-27T15:28:07.263Z,4.43
2019-01-27T15:30:47.366Z,4.43
2019-01-27T15:33:33.780Z,4.27
2019-01-27T15:36:14.378Z,4.87
2019-01-27T15:39:00.667Z,4.30
2019-01-27T15:41:41.526Z,4.03
2019-01-27T15:44:08.037Z,4.90
2019-01-27T15:46:34.543Z,4.60
2019-01-27T15:49:20.923Z,4.57
2019-01-27T15:52:01.344Z,5.03
2019-01-27T15:54:47.599Z,4.00
2019-01-27T15:57:27.206Z,4.53
2019-01-27T16:00:14.906Z,4.77
2019-01-27T16:02:55.275Z,5.40
2019-01-27T16:05:41.547Z,5.20
2019-01-27T16:08:21.390Z,5.67
2019-01-27T16:11:07.757Z,5.23
2019-01-27T16:13:47.816Z,5.93
2019-01-27T16:16:49.365Z,5.33
2019-01-27T16:19:29.699Z,5.47
2019-01-27T16:22:16.049Z,6.10
2019-01-27T16:25:03.001Z,5.27
2019-01-27T16:27:42.874Z,5.40
2019-01-27T16:30:48.986Z,6.27
2019-01-27T16:33:49.860Z,5.87
2019-01-27T16:36:16.343Z,5.53
2019-01-27T16:38:42.875Z,5.67
2019-01-27T16:41:29.234Z,5.07
2019-01-27T16:47:30.556Z,4.60
2019-01-27T16:50:13.808Z,5.13
2019-01-27T16:53:00.030Z,5.07
2019-01-27T16:55:39.541Z,5.87
2019-01-27T16:58:25.810Z,4.90
2019-01-27T17:01:05.554Z,5.97
2019-01-27T17:03:51.857Z,5.47
2019-01-27T17:06:31.566Z,5.60
2019-01-27T17:09:17.999Z,6.20
2019-01-27T17:11:57.510Z,6.60
2019-01-27T17:14:37.602Z,7.57
2019-01-27T17:17:23.984Z,7.63
2019-01-27T17:19:50.494Z,7.50
2019-01-27T17:22:17.024Z,11.03
2019-01-27T17:24:43.437Z,8.37
2019-01-27T17:27:29.670Z,8.40
2019-01-27T17:30:35.828Z,8.30
2019-01-27T17:33:02.484Z,7.60
2019-01-27T17:35:48.839Z,7.93
2019-01-27T17:41:19.172Z,9.00
2019-01-27T17:43:58.791Z,7.73
2019-01-27T17:47:06.670Z,9.07
2019-01-27T17:49:46.885Z,8.47
2019-01-27T17:52:34.464Z,10.07
2019-01-27T17:55:01.029Z,9.87
2019-01-27T18:00:45.032Z,9.13
2019-01-27T18:03:32.295Z,9.43
2019-01-27T18:06:38.502Z,9.67
2019-01-27T18:09:46.362Z,9.43
2019-01-27T18:15:32.656Z,10.97
2019-01-27T18:17:59.147Z,11.37
2019-01-27T18:20:25.902Z,10.40
2019-01-27T18:23:12.337Z,10.77
2019-01-27T18:25:53.573Z,13.40
2019-01-27T18:28:40.147Z,10.97
2019-01-27T18:31:20.002Z,11.03
2019-01-27T18:34:06.417Z,11.83
2019-01-27T18:36:46.045Z,10.57
2019-01-27T18:39:32.300Z,10.83
2019-01-27T18:42:12.463Z,11.03
2019-01-27T18:44:58.833Z,11.43
2019-01-27T18:47:39.256Z,11.13
2019-01-27T18:50:25.559Z,11.47
2019-01-27T18:56:27.178Z,14.23
2019-01-27T18:59:33.263Z,11.60
2019-01-27T19:02:17.768Z,13.33
2019-01-27T19:08:37.938Z,12.67
2019-01-27T19:14:25.883Z,12.90
2019-01-27T19:17:31.988Z,12.33
2019-01-27T19:20:18.272Z,12.93
2019-01-27T19:23:04.626Z,11.57
2019-01-27T19:26:03.882Z,11.50
2019-01-27T19:31:53.572Z,11.37
2019-01-27T19:34:39.968Z,12.03
2019-01-27T19:40:47.021Z,12.13
2019-01-27T19:43:47.034Z,11.73
2019-01-27T19:46:53.423Z,11.77
2019-01-27T19:49:35.697Z,10.83
2019-01-27T19:58:11.249Z,10.03
2019-01-27T20:00:57.625Z,11.00
2019-01-27T20:09:33.382Z,10.97
2019-01-27T20:18:58.245Z,11.37
2019-01-27T20:24:42.129Z,10.93
2019-01-27T20:27:42.916Z,11.47
2019-01-27T20:30:48.929Z,11.10
2019-01-27T20:33:33.849Z,9.30
2019-01-27T20:39:41.450Z,10.07
2019-01-27T20:42:47.541Z,11.33
2019-01-27T20:45:33.922Z,14.73
2019-01-27T20:48:20.245Z,9.23
2019-01-27T20:51:04.395Z,9.87
2019-01-27T20:54:10.534Z,9.17
2019-01-27T20:56:52.232Z,9.50
2019-01-27T20:59:38.663Z,8.63
2019-01-27T21:02:25.902Z,9.60
2019-01-27T21:08:15.809Z,10.27
2019-01-27T21:11:15.745Z,8.53
2019-01-27T21:14:21.893Z,11.43
2019-01-27T21:17:21.539Z,8.57
2019-01-27T21:20:08.043Z,10.13
2019-01-27T21:22:47.851Z,10.23
2019-01-27T21:25:34.149Z,9.63
2019-01-27T21:28:13.810Z,11.27
2019-01-27T21:31:00.129Z,11.10
2019-01-27T21:33:26.647Z,10.90
2019-01-27T21:36:12.992Z,10.33
2019-01-27T21:38:39.638Z,10.60
2019-01-27T21:41:25.891Z,10.40
2019-01-27T21:44:05.893Z,10.57
2019-01-27T21:46:32.420Z,11.33
2019-01-27T21:48:59.032Z,10.93
2019-01-27T21:51:25.761Z,11.70
2019-01-27T21:54:12.027Z,11.30
2019-01-27T21:56:52.491Z,13.00
2019-01-27T21:59:38.997Z,11.83
2019-01-27T22:02:18.639Z,10.97
2019-01-27T22:05:05.574Z,10.43
2019-01-27T22:10:42.161Z,11.43
2019-01-27T22:13:28.564Z,11.90
2019-01-27T22:16:08.429Z,11.83
2019-01-27T22:18:35.063Z,10.53
2019-01-27T22:21:02.584Z,12.63
2019-01-27T22:23:49.025Z,10.50
2019-01-27T22:26:35.377Z,10.10
2019-01-27T22:29:15.046Z,11.70
2019-01-27T22:32:01.314Z,10.23
2019-01-27T22:34:47.568Z,9.97
2019-01-27T22:37:27.486Z,9.73
2019-01-27T22:40:14.046Z,9.90
2019-01-27T22:42:53.815Z,10.17
2019-01-27T22:45:22.448Z,10.60
2019-01-27T22:50:17.970Z,11.93
2019-01-27T22:52:44.434Z,9.90
2019-01-27T22:55:31.516Z,12.20
2019-01-27T22:57:57.866Z,9.83
2019-01-27T23:03:59.363Z,10.23
2019-01-27T23:06:45.746Z,10.00
2019-01-27T23:09:25.455Z,9.43
2019-01-27T23:11:51.936Z,11.97
2019-01-27T23:14:38.314Z,10.10
2019-01-27T23:17:18.795Z,9.77
2019-01-27T23:20:05.765Z,9.43
2019-01-27T23:22:32.354Z,10.10
2019-01-27T23:25:18.622Z,10.73
2019-01-27T23:27:58.071Z,11.23
2019-01-27T23:30:44.416Z,11.13
2019-01-27T23:33:24.293Z,12.00
2019-01-27T23:35:50.835Z,11.93
2019-01-27T23:38:37.162Z,11.43
2019-01-27T23:41:03.640Z,13.00
2019-01-27T23:43:49.915Z,13.13
2019-01-27T23:46:36.194Z,13.17
2019-01-27T23:49:16.516Z,11.80
2019-01-27T23:51:42.989Z,11.53
2019-01-27T23:54:29.346Z,11.47
2019-01-27T23:57:15.582Z,10.40
2019-01-27T23:59:55.910Z,11.57
